sensor_id;sensor_type;location;lat;lon;timestamp;P1;durP1;ratioP1;P2;durP2;ratioP2
11006;SDS011;8186;57.652;11.968;2022-10-16T00:01:38;13.53;;;3.93;;
11006;SDS011;8186;57.652;11.968;2022-10-16T00:04:05;14.33;;;4.43;;
11006;SDS011;8186;57.652;11.968;2022-10-16T00:06:32;15.47;;;4.20;;
11006;SDS011;8186;57.652;11.968;2022-10-16T00:08:59;12.17;;;3.43;;
11006;SDS011;8186;57.652;11.968;2022-10-16T00:11:28;11.53;;;3.27;;
11006;SDS011;8186;57.652;11.968;2022-10-16T00:13:58;13.30;;;3.70;;
11006;SDS011;8186;57.652;11.968;2022-10-16T00:16:27;15.63;;;4.20;;
11006;SDS011;8186;57.652;11.968;2022-10-16T00:18:54;10.83;;;3.73;;
11006;SDS011;8186;57.652;11.968;2022-10-16T00:21:22;12.20;;;2.73;;
11006;SDS011;8186;57.652;11.968;2022-10-16T00:23:50;11.13;;;3.20;;
11006;SDS011;8186;57.652;11.968;2022-10-16T00:26:18;11.03;;;3.67;;
11006;SDS011;8186;57.652;11.968;2022-10-16T00:28:46;11.53;;;3.03;;
11006;SDS011;8186;57.652;11.968;2022-10-16T00:31:14;10.53;;;3.40;;
11006;SDS011;8186;57.652;11.968;2022-10-16T00:33:41;10.67;;;2.80;;
11006;SDS011;8186;57.652;11.968;2022-10-16T00:36:09;8.73;;;2.93;;
11006;SDS011;8186;57.652;11.968;2022-10-16T00:38:37;11.70;;;3.07;;
11006;SDS011;8186;57.652;11.968;2022-10-16T00:41:05;11.13;;;3.13;;
11006;SDS011;8186;57.652;11.968;2022-10-16T00:43:33;11.07;;;2.90;;
11006;SDS011;8186;57.652;11.968;2022-10-16T00:46:10;11.07;;;2.63;;
11006;SDS011;8186;57.652;11.968;2022-10-16T00:48:42;9.93;;;2.40;;
11006;SDS011;8186;57.652;11.968;2022-10-16T00:51:12;11.13;;;3.03;;
11006;SDS011;8186;57.652;11.968;2022-10-16T00:53:39;11.80;;;2.83;;
11006;SDS011;8186;57.652;11.968;2022-10-16T00:56:06;9.93;;;2.60;;
11006;SDS011;8186;57.652;11.968;2022-10-16T00:58:33;11.00;;;2.90;;
11006;SDS011;8186;57.652;11.968;2022-10-16T01:01:00;11.87;;;2.63;;
11006;SDS011;8186;57.652;11.968;2022-10-16T01:03:29;5.33;;;2.27;;
11006;SDS011;8186;57.652;11.968;2022-10-16T01:06:11;8.37;;;2.60;;
11006;SDS011;8186;57.652;11.968;2022-10-16T01:08:49;9.47;;;2.30;;
11006;SDS011;8186;57.652;11.968;2022-10-16T01:11:25;15.67;;;3.30;;
11006;SDS011;8186;57.652;11.968;2022-10-16T01:13:55;11.73;;;3.00;;
11006;SDS011;8186;57.652;11.968;2022-10-16T01:16:28;15.57;;;3.10;;
11006;SDS011;8186;57.652;11.968;2022-10-16T01:19:00;9.33;;;2.83;;
11006;SDS011;8186;57.652;11.968;2022-10-16T01:21:33;9.40;;;2.97;;
11006;SDS011;8186;57.652;11.968;2022-10-16T01:24:03;9.97;;;2.80;;
11006;SDS011;8186;57.652;11.968;2022-10-16T01:26:36;10.70;;;2.43;;
11006;SDS011;8186;57.652;11.968;2022-10-16T01:29:16;13.80;;;2.70;;
11006;SDS011;8186;57.652;11.968;2022-10-16T01:31:47;10.30;;;2.50;;
11006;SDS011;8186;57.652;11.968;2022-10-16T01:34:16;11.57;;;2.47;;
11006;SDS011;8186;57.652;11.968;2022-10-16T01:36:47;14.63;;;2.50;;
11006;SDS011;8186;57.652;11.968;2022-10-16T01:39:16;8.47;;;2.33;;
11006;SDS011;8186;57.652;11.968;2022-10-16T01:41:46;9.73;;;2.43;;
11006;SDS011;8186;57.652;11.968;2022-10-16T01:44:17;9.53;;;2.90;;
11006;SDS011;8186;57.652;11.968;2022-10-16T01:46:47;12.27;;;3.30;;
11006;SDS011;8186;57.652;11.968;2022-10-16T01:49:16;7.67;;;2.60;;
11006;SDS011;8186;57.652;11.968;2022-10-16T01:51:44;10.57;;;2.70;;
11006;SDS011;8186;57.652;11.968;2022-10-16T01:54:13;8.47;;;2.50;;
11006;SDS011;8186;57.652;11.968;2022-10-16T01:56:40;9.83;;;2.63;;
11006;SDS011;8186;57.652;11.968;2022-10-16T01:59:09;9.47;;;2.83;;
11006;SDS011;8186;57.652;11.968;2022-10-16T02:01:39;10.20;;;2.67;;
11006;SDS011;8186;57.652;11.968;2022-10-16T02:04:10;13.97;;;3.43;;
11006;SDS011;8186;57.652;11.968;2022-10-16T02:06:41;10.90;;;3.13;;
11006;SDS011;8186;57.652;11.968;2022-10-16T02:09:08;10.03;;;2.77;;
11006;SDS011;8186;57.652;11.968;2022-10-16T02:11:35;9.73;;;2.60;;
11006;SDS011;8186;57.652;11.968;2022-10-16T02:14:02;15.87;;;3.03;;
11006;SDS011;8186;57.652;11.968;2022-10-16T02:16:35;20.00;;;3.60;;
11006;SDS011;8186;57.652;11.968;2022-10-16T02:19:05;12.30;;;2.80;;
11006;SDS011;8186;57.652;11.968;2022-10-16T02:21:33;15.47;;;2.93;;
11006;SDS011;8186;57.652;11.968;2022-10-16T02:24:05;12.43;;;2.57;;
11006;SDS011;8186;57.652;11.968;2022-10-16T02:26:35;8.17;;;2.30;;
11006;SDS011;8186;57.652;11.968;2022-10-16T02:29:06;9.93;;;2.67;;
11006;SDS011;8186;57.652;11.968;2022-10-16T02:31:36;15.60;;;3.30;;
11006;SDS011;8186;57.652;11.968;2022-10-16T02:34:07;14.13;;;3.33;;
11006;SDS011;8186;57.652;11.968;2022-10-16T02:36:37;12.40;;;2.80;;
11006;SDS011;8186;57.652;11.968;2022-10-16T02:39:04;11.47;;;2.90;;
11006;SDS011;8186;57.652;11.968;2022-10-16T02:41:32;11.37;;;3.47;;
11006;SDS011;8186;57.652;11.968;2022-10-16T02:43:59;14.20;;;4.40;;
11006;SDS011;8186;57.652;11.968;2022-10-16T02:46:25;8.87;;;3.20;;
11006;SDS011;8186;57.652;11.968;2022-10-16T02:48:52;14.23;;;3.20;;
11006;SDS011;8186;57.652;11.968;2022-10-16T02:51:20;10.03;;;2.80;;
11006;SDS011;8186;57.652;11.968;2022-10-16T02:53:47;10.70;;;2.67;;
11006;SDS011;8186;57.652;11.968;2022-10-16T02:56:14;10.27;;;2.60;;
11006;SDS011;8186;57.652;11.968;2022-10-16T02:58:41;17.93;;;3.07;;
11006;SDS011;8186;57.652;11.968;2022-10-16T03:01:08;16.87;;;3.13;;
11006;SDS011;8186;57.652;11.968;2022-10-16T03:03:34;11.37;;;2.87;;
11006;SDS011;8186;57.652;11.968;2022-10-16T03:06:01;11.77;;;2.80;;
11006;SDS011;8186;57.652;11.968;2022-10-16T03:08:30;13.00;;;3.03;;
11006;SDS011;8186;57.652;11.968;2022-10-16T03:10:56;14.03;;;3.30;;
11006;SDS011;8186;57.652;11.968;2022-10-16T03:13:23;11.63;;;3.20;;
11006;SDS011;8186;57.652;11.968;2022-10-16T03:15:50;13.67;;;3.17;;
11006;SDS011;8186;57.652;11.968;2022-10-16T03:18:17;8.47;;;2.80;;
11006;SDS011;8186;57.652;11.968;2022-10-16T03:20:44;12.73;;;3.67;;
11006;SDS011;8186;57.652;11.968;2022-10-16T03:23:11;13.07;;;2.90;;
11006;SDS011;8186;57.652;11.968;2022-10-16T03:25:39;13.93;;;3.53;;
11006;SDS011;8186;57.652;11.968;2022-10-16T03:28:06;11.80;;;3.13;;
11006;SDS011;8186;57.652;11.968;2022-10-16T03:30:33;12.27;;;2.90;;
11006;SDS011;8186;57.652;11.968;2022-10-16T03:33:00;12.47;;;3.20;;
11006;SDS011;8186;57.652;11.968;2022-10-16T03:35:27;10.83;;;3.00;;
11006;SDS011;8186;57.652;11.968;2022-10-16T03:37:54;13.17;;;3.20;;
11006;SDS011;8186;57.652;11.968;2022-10-16T03:40:21;12.07;;;2.53;;
11006;SDS011;8186;57.652;11.968;2022-10-16T03:42:49;14.23;;;3.13;;
11006;SDS011;8186;57.652;11.968;2022-10-16T03:45:16;15.57;;;3.30;;
11006;SDS011;8186;57.652;11.968;2022-10-16T03:47:43;10.70;;;3.50;;
11006;SDS011;8186;57.652;11.968;2022-10-16T03:50:10;8.60;;;2.67;;
11006;SDS011;8186;57.652;11.968;2022-10-16T03:52:37;16.33;;;3.47;;
11006;SDS011;8186;57.652;11.968;2022-10-16T03:55:04;15.40;;;2.87;;
11006;SDS011;8186;57.652;11.968;2022-10-16T03:57:31;9.17;;;3.10;;
11006;SDS011;8186;57.652;11.968;2022-10-16T04:00:00;11.20;;;2.73;;
11006;SDS011;8186;57.652;11.968;2022-10-16T04:02:27;9.50;;;2.83;;
11006;SDS011;8186;57.652;11.968;2022-10-16T04:04:53;11.33;;;2.90;;
11006;SDS011;8186;57.652;11.968;2022-10-16T04:07:20;10.63;;;2.60;;
11006;SDS011;8186;57.652;11.968;2022-10-16T04:09:47;11.63;;;2.97;;
11006;SDS011;8186;57.652;11.968;2022-10-16T04:12:14;12.33;;;2.83;;
11006;SDS011;8186;57.652;11.968;2022-10-16T04:14:41;14.30;;;2.77;;
11006;SDS011;8186;57.652;11.968;2022-10-16T04:17:09;12.53;;;2.60;;
11006;SDS011;8186;57.652;11.968;2022-10-16T04:19:36;14.40;;;2.90;;
11006;SDS011;8186;57.652;11.968;2022-10-16T04:22:02;8.87;;;2.97;;
11006;SDS011;8186;57.652;11.968;2022-10-16T04:24:29;7.93;;;2.37;;
11006;SDS011;8186;57.652;11.968;2022-10-16T04:26:56;6.80;;;2.63;;
11006;SDS011;8186;57.652;11.968;2022-10-16T04:29:23;10.43;;;2.73;;
11006;SDS011;8186;57.652;11.968;2022-10-16T04:31:50;12.47;;;3.03;;
11006;SDS011;8186;57.652;11.968;2022-10-16T04:34:18;15.73;;;2.83;;
11006;SDS011;8186;57.652;11.968;2022-10-16T04:36:46;13.40;;;2.83;;
11006;SDS011;8186;57.652;11.968;2022-10-16T04:39:14;10.60;;;3.00;;
11006;SDS011;8186;57.652;11.968;2022-10-16T04:41:40;7.63;;;2.40;;
11006;SDS011;8186;57.652;11.968;2022-10-16T04:44:07;11.27;;;3.20;;
11006;SDS011;8186;57.652;11.968;2022-10-16T04:46:34;9.53;;;2.90;;
11006;SDS011;8186;57.652;11.968;2022-10-16T04:49:01;7.87;;;2.40;;
11006;SDS011;8186;57.652;11.968;2022-10-16T04:51:29;9.30;;;2.43;;
11006;SDS011;8186;57.652;11.968;2022-10-16T04:53:56;12.30;;;2.57;;
11006;SDS011;8186;57.652;11.968;2022-10-16T04:56:23;12.83;;;2.77;;
11006;SDS011;8186;57.652;11.968;2022-10-16T04:58:50;21.20;;;3.13;;
11006;SDS011;8186;57.652;11.968;2022-10-16T05:01:17;21.27;;;3.50;;
11006;SDS011;8186;57.652;11.968;2022-10-16T05:03:43;11.27;;;2.73;;
11006;SDS011;8186;57.652;11.968;2022-10-16T05:06:11;10.97;;;3.03;;
11006;SDS011;8186;57.652;11.968;2022-10-16T05:08:39;11.03;;;3.07;;
11006;SDS011;8186;57.652;11.968;2022-10-16T05:11:06;12.17;;;2.67;;
11006;SDS011;8186;57.652;11.968;2022-10-16T05:13:33;10.30;;;2.83;;
11006;SDS011;8186;57.652;11.968;2022-10-16T05:16:00;8.37;;;2.60;;
11006;SDS011;8186;57.652;11.968;2022-10-16T05:18:26;11.37;;;2.70;;
11006;SDS011;8186;57.652;11.968;2022-10-16T05:20:53;13.57;;;3.47;;
11006;SDS011;8186;57.652;11.968;2022-10-16T05:23:20;10.93;;;3.37;;
11006;SDS011;8186;57.652;11.968;2022-10-16T05:25:53;8.90;;;2.90;;
11006;SDS011;8186;57.652;11.968;2022-10-16T05:28:20;17.13;;;3.60;;
11006;SDS011;8186;57.652;11.968;2022-10-16T05:30:48;10.03;;;3.20;;
11006;SDS011;8186;57.652;11.968;2022-10-16T05:33:15;12.47;;;3.40;;
11006;SDS011;8186;57.652;11.968;2022-10-16T05:35:41;11.83;;;3.40;;
11006;SDS011;8186;57.652;11.968;2022-10-16T05:38:09;11.10;;;3.70;;
11006;SDS011;8186;57.652;11.968;2022-10-16T05:40:36;16.67;;;3.43;;
11006;SDS011;8186;57.652;11.968;2022-10-16T05:43:04;18.57;;;3.80;;
11006;SDS011;8186;57.652;11.968;2022-10-16T05:45:31;10.47;;;3.87;;
11006;SDS011;8186;57.652;11.968;2022-10-16T05:47:58;13.17;;;3.90;;
11006;SDS011;8186;57.652;11.968;2022-10-16T05:50:26;14.53;;;4.33;;
11006;SDS011;8186;57.652;11.968;2022-10-16T05:52:52;20.57;;;4.77;;
11006;SDS011;8186;57.652;11.968;2022-10-16T05:55:19;16.83;;;5.53;;
11006;SDS011;8186;57.652;11.968;2022-10-16T05:57:46;11.47;;;5.27;;
11006;SDS011;8186;57.652;11.968;2022-10-16T06:00:15;17.40;;;5.00;;
11006;SDS011;8186;57.652;11.968;2022-10-16T06:02:42;14.43;;;5.43;;
11006;SDS011;8186;57.652;11.968;2022-10-16T06:05:09;14.10;;;5.13;;
11006;SDS011;8186;57.652;11.968;2022-10-16T06:07:36;9.57;;;4.80;;
11006;SDS011;8186;57.652;11.968;2022-10-16T06:10:03;18.10;;;5.27;;
11006;SDS011;8186;57.652;11.968;2022-10-16T06:12:31;13.40;;;4.60;;
11006;SDS011;8186;57.652;11.968;2022-10-16T06:14:58;11.27;;;4.40;;
11006;SDS011;8186;57.652;11.968;2022-10-16T06:17:26;15.33;;;5.33;;
11006;SDS011;8186;57.652;11.968;2022-10-16T06:19:53;16.37;;;5.50;;
11006;SDS011;8186;57.652;11.968;2022-10-16T06:22:20;14.13;;;5.40;;
11006;SDS011;8186;57.652;11.968;2022-10-16T06:24:47;10.40;;;5.10;;
11006;SDS011;8186;57.652;11.968;2022-10-16T06:27:14;12.80;;;4.63;;
11006;SDS011;8186;57.652;11.968;2022-10-16T06:29:41;10.47;;;4.47;;
11006;SDS011;8186;57.652;11.968;2022-10-16T06:32:10;12.97;;;5.23;;
11006;SDS011;8186;57.652;11.968;2022-10-16T06:34:38;14.17;;;5.00;;
11006;SDS011;8186;57.652;11.968;2022-10-16T06:37:06;10.60;;;4.43;;
11006;SDS011;8186;57.652;11.968;2022-10-16T06:39:33;10.93;;;4.07;;
11006;SDS011;8186;57.652;11.968;2022-10-16T06:42:00;12.93;;;4.07;;
11006;SDS011;8186;57.652;11.968;2022-10-16T06:44:27;15.33;;;4.80;;
11006;SDS011;8186;57.652;11.968;2022-10-16T06:46:54;9.53;;;3.17;;
11006;SDS011;8186;57.652;11.968;2022-10-16T06:49:20;11.17;;;3.93;;
11006;SDS011;8186;57.652;11.968;2022-10-16T06:51:49;7.13;;;3.50;;
11006;SDS011;8186;57.652;11.968;2022-10-16T06:54:16;14.13;;;3.20;;
11006;SDS011;8186;57.652;11.968;2022-10-16T06:56:43;10.57;;;2.93;;
11006;SDS011;8186;57.652;11.968;2022-10-16T06:59:11;9.53;;;2.83;;
11006;SDS011;8186;57.652;11.968;2022-10-16T07:01:38;10.97;;;3.47;;
11006;SDS011;8186;57.652;11.968;2022-10-16T07:04:05;9.90;;;2.67;;
11006;SDS011;8186;57.652;11.968;2022-10-16T07:06:32;8.57;;;2.67;;
11006;SDS011;8186;57.652;11.968;2022-10-16T07:09:02;11.23;;;3.13;;
11006;SDS011;8186;57.652;11.968;2022-10-16T07:11:31;11.03;;;5.30;;
11006;SDS011;8186;57.652;11.968;2022-10-16T07:13:59;9.00;;;3.33;;
11006;SDS011;8186;57.652;11.968;2022-10-16T07:16:26;9.67;;;3.00;;
11006;SDS011;8186;57.652;11.968;2022-10-16T07:18:54;10.47;;;3.60;;
11006;SDS011;8186;57.652;11.968;2022-10-16T07:21:23;11.27;;;3.00;;
11006;SDS011;8186;57.652;11.968;2022-10-16T07:23:52;5.23;;;2.10;;
11006;SDS011;8186;57.652;11.968;2022-10-16T07:26:20;11.37;;;3.30;;
11006;SDS011;8186;57.652;11.968;2022-10-16T07:28:48;6.17;;;2.33;;
11006;SDS011;8186;57.652;11.968;2022-10-16T07:31:15;8.20;;;2.40;;
11006;SDS011;8186;57.652;11.968;2022-10-16T07:33:44;7.47;;;2.60;;
11006;SDS011;8186;57.652;11.968;2022-10-16T07:36:13;9.87;;;2.70;;
11006;SDS011;8186;57.652;11.968;2022-10-16T07:38:40;9.13;;;2.70;;
11006;SDS011;8186;57.652;11.968;2022-10-16T07:41:09;7.57;;;2.13;;
11006;SDS011;8186;57.652;11.968;2022-10-16T07:43:38;8.00;;;2.23;;
11006;SDS011;8186;57.652;11.968;2022-10-16T07:46:05;10.37;;;2.60;;
11006;SDS011;8186;57.652;11.968;2022-10-16T07:48:33;10.50;;;2.80;;
11006;SDS011;8186;57.652;11.968;2022-10-16T07:51:01;11.07;;;2.70;;
11006;SDS011;8186;57.652;11.968;2022-10-16T07:53:29;14.03;;;2.73;;
11006;SDS011;8186;57.652;11.968;2022-10-16T07:55:57;12.70;;;2.40;;
11006;SDS011;8186;57.652;11.968;2022-10-16T07:58:25;11.03;;;2.60;;
11006;SDS011;8186;57.652;11.968;2022-10-16T08:00:53;10.03;;;2.80;;
11006;SDS011;8186;57.652;11.968;2022-10-16T08:03:21;13.47;;;3.23;;
11006;SDS011;8186;57.652;11.968;2022-10-16T08:05:47;9.90;;;3.47;;
11006;SDS011;8186;57.652;11.968;2022-10-16T08:08:15;9.77;;;2.40;;
11006;SDS011;8186;57.652;11.968;2022-10-16T08:10:43;14.23;;;2.53;;
11006;SDS011;8186;57.652;11.968;2022-10-16T08:13:10;12.53;;;3.10;;
11006;SDS011;8186;57.652;11.968;2022-10-16T08:15:37;11.37;;;3.07;;
11006;SDS011;8186;57.652;11.968;2022-10-16T08:18:06;12.40;;;3.23;;
11006;SDS011;8186;57.652;11.968;2022-10-16T08:20:35;11.07;;;2.80;;
11006;SDS011;8186;57.652;11.968;2022-10-16T08:23:02;16.77;;;3.90;;
11006;SDS011;8186;57.652;11.968;2022-10-16T08:25:29;14.53;;;3.50;;
11006;SDS011;8186;57.652;11.968;2022-10-16T08:27:59;17.10;;;3.13;;
11006;SDS011;8186;57.652;11.968;2022-10-16T08:30:25;14.60;;;3.37;;
11006;SDS011;8186;57.652;11.968;2022-10-16T08:32:52;14.03;;;3.23;;
11006;SDS011;8186;57.652;11.968;2022-10-16T08:35:20;12.63;;;3.13;;
11006;SDS011;8186;57.652;11.968;2022-10-16T08:37:47;12.13;;;2.90;;
11006;SDS011;8186;57.652;11.968;2022-10-16T08:40:16;14.40;;;4.07;;
11006;SDS011;8186;57.652;11.968;2022-10-16T08:42:47;10.70;;;2.90;;
11006;SDS011;8186;57.652;11.968;2022-10-16T08:45:21;13.65;;;3.72;;
11006;SDS011;8186;57.652;11.968;2022-10-16T08:47:56;13.83;;;3.27;;
11006;SDS011;8186;57.652;11.968;2022-10-16T08:50:30;11.40;;;3.27;;
11006;SDS011;8186;57.652;11.968;2022-10-16T08:52:58;14.40;;;3.50;;
11006;SDS011;8186;57.652;11.968;2022-10-16T08:55:29;11.60;;;3.20;;
11006;SDS011;8186;57.652;11.968;2022-10-16T08:57:58;18.07;;;3.87;;
11006;SDS011;8186;57.652;11.968;2022-10-16T09:00:26;22.77;;;4.30;;
11006;SDS011;8186;57.652;11.968;2022-10-16T09:02:55;15.70;;;4.40;;
11006;SDS011;8186;57.652;11.968;2022-10-16T09:08:23;21.23;;;4.70;;
11006;SDS011;8186;57.652;11.968;2022-10-16T09:10:57;17.00;;;3.50;;
11006;SDS011;8186;57.652;11.968;2022-10-16T09:13:27;17.77;;;3.87;;
11006;SDS011;8186;57.652;11.968;2022-10-16T09:15:59;16.60;;;4.30;;
11006;SDS011;8186;57.652;11.968;2022-10-16T09:18:35;12.23;;;3.10;;
11006;SDS011;8186;57.652;11.968;2022-10-16T09:21:08;18.33;;;3.83;;
11006;SDS011;8186;57.652;11.968;2022-10-16T09:23:38;15.63;;;3.67;;
11006;SDS011;8186;57.652;11.968;2022-10-16T09:26:05;14.20;;;2.93;;
11006;SDS011;8186;57.652;11.968;2022-10-16T09:28:36;15.80;;;3.70;;
11006;SDS011;8186;57.652;11.968;2022-10-16T09:31:03;17.80;;;3.70;;
11006;SDS011;8186;57.652;11.968;2022-10-16T09:33:33;21.30;;;4.80;;
11006;SDS011;8186;57.652;11.968;2022-10-16T09:36:01;18.73;;;3.70;;
11006;SDS011;8186;57.652;11.968;2022-10-16T09:38:32;20.73;;;3.83;;
11006;SDS011;8186;57.652;11.968;2022-10-16T09:41:13;15.40;;;3.83;;
11006;SDS011;8186;57.652;11.968;2022-10-16T09:43:46;17.07;;;4.33;;
11006;SDS011;8186;57.652;11.968;2022-10-16T09:46:21;12.87;;;3.00;;
11006;SDS011;8186;57.652;11.968;2022-10-16T09:48:50;13.90;;;3.93;;
11006;SDS011;8186;57.652;11.968;2022-10-16T09:51:18;19.30;;;4.20;;
11006;SDS011;8186;57.652;11.968;2022-10-16T09:53:46;15.37;;;3.20;;
11006;SDS011;8186;57.652;11.968;2022-10-16T09:56:22;18.83;;;4.20;;
11006;SDS011;8186;57.652;11.968;2022-10-16T09:58:50;24.77;;;3.53;;
11006;SDS011;8186;57.652;11.968;2022-10-16T10:01:17;13.77;;;3.20;;
11006;SDS011;8186;57.652;11.968;2022-10-16T10:03:45;16.30;;;3.47;;
11006;SDS011;8186;57.652;11.968;2022-10-16T10:06:17;14.53;;;3.00;;
11006;SDS011;8186;57.652;11.968;2022-10-16T10:08:59;17.87;;;4.23;;
11006;SDS011;8186;57.652;11.968;2022-10-16T10:11:46;19.57;;;3.60;;
11006;SDS011;8186;57.652;11.968;2022-10-16T10:14:17;15.33;;;3.73;;
11006;SDS011;8186;57.652;11.968;2022-10-16T10:16:46;13.20;;;2.97;;
11006;SDS011;8186;57.652;11.968;2022-10-16T10:19:14;19.13;;;3.83;;
11006;SDS011;8186;57.652;11.968;2022-10-16T10:21:42;13.37;;;3.47;;
11006;SDS011;8186;57.652;11.968;2022-10-16T10:24:10;15.00;;;3.40;;
11006;SDS011;8186;57.652;11.968;2022-10-16T10:26:37;17.17;;;4.30;;
11006;SDS011;8186;57.652;11.968;2022-10-16T10:29:08;17.53;;;3.60;;
11006;SDS011;8186;57.652;11.968;2022-10-16T10:31:38;19.47;;;3.57;;
11006;SDS011;8186;57.652;11.968;2022-10-16T10:34:12;10.20;;;2.97;;
11006;SDS011;8186;57.652;11.968;2022-10-16T10:36:45;15.10;;;4.07;;
11006;SDS011;8186;57.652;11.968;2022-10-16T10:39:18;19.50;;;4.23;;
11006;SDS011;8186;57.652;11.968;2022-10-16T10:41:55;17.20;;;3.70;;
11006;SDS011;8186;57.652;11.968;2022-10-16T10:44:33;16.80;;;3.97;;
11006;SDS011;8186;57.652;11.968;2022-10-16T10:47:10;16.67;;;3.40;;
11006;SDS011;8186;57.652;11.968;2022-10-16T10:49:46;19.53;;;3.63;;
11006;SDS011;8186;57.652;11.968;2022-10-16T10:52:24;16.90;;;3.90;;
11006;SDS011;8186;57.652;11.968;2022-10-16T10:55:03;21.00;;;4.47;;
11006;SDS011;8186;57.652;11.968;2022-10-16T10:57:38;20.73;;;4.40;;
11006;SDS011;8186;57.652;11.968;2022-10-16T11:00:14;14.90;;;3.83;;
11006;SDS011;8186;57.652;11.968;2022-10-16T11:02:48;19.57;;;3.93;;
11006;SDS011;8186;57.652;11.968;2022-10-16T11:05:26;19.33;;;4.43;;
11006;SDS011;8186;57.652;11.968;2022-10-16T11:07:58;18.77;;;4.03;;
11006;SDS011;8186;57.652;11.968;2022-10-16T11:10:27;14.50;;;3.70;;
11006;SDS011;8186;57.652;11.968;2022-10-16T11:12:57;19.53;;;3.80;;
11006;SDS011;8186;57.652;11.968;2022-10-16T11:15:27;19.03;;;3.83;;
11006;SDS011;8186;57.652;11.968;2022-10-16T11:17:57;21.03;;;4.47;;
11006;SDS011;8186;57.652;11.968;2022-10-16T11:20:27;17.67;;;3.87;;
11006;SDS011;8186;57.652;11.968;2022-10-16T11:22:56;16.67;;;4.10;;
11006;SDS011;8186;57.652;11.968;2022-10-16T11:25:26;16.53;;;4.53;;
11006;SDS011;8186;57.652;11.968;2022-10-16T11:27:57;23.03;;;4.17;;
11006;SDS011;8186;57.652;11.968;2022-10-16T11:30:29;17.23;;;4.20;;
11006;SDS011;8186;57.652;11.968;2022-10-16T11:33:05;16.87;;;3.87;;
11006;SDS011;8186;57.652;11.968;2022-10-16T11:35:44;16.50;;;3.47;;
11006;SDS011;8186;57.652;11.968;2022-10-16T11:38:15;22.63;;;4.37;;
11006;SDS011;8186;57.652;11.968;2022-10-16T11:41:00;17.03;;;3.47;;
11006;SDS011;8186;57.652;11.968;2022-10-16T11:43:32;21.37;;;3.80;;
11006;SDS011;8186;57.652;11.968;2022-10-16T11:46:04;12.70;;;3.67;;
11006;SDS011;8186;57.652;11.968;2022-10-16T11:48:36;16.73;;;4.00;;
11006;SDS011;8186;57.652;11.968;2022-10-16T11:51:06;19.07;;;3.60;;
11006;SDS011;8186;57.652;11.968;2022-10-16T11:53:40;19.10;;;4.03;;
11006;SDS011;8186;57.652;11.968;2022-10-16T11:56:12;17.17;;;3.30;;
11006;SDS011;8186;57.652;11.968;2022-10-16T11:58:41;17.00;;;4.27;;
11006;SDS011;8186;57.652;11.968;2022-10-16T12:01:17;18.53;;;4.90;;
11006;SDS011;8186;57.652;11.968;2022-10-16T12:03:48;6.70;;;1.57;;
11006;SDS011;8186;57.652;11.968;2022-10-16T12:06:30;8.93;;;2.27;;
11006;SDS011;8186;57.652;11.968;2022-10-16T12:09:00;16.43;;;2.73;;
11006;SDS011;8186;57.652;11.968;2022-10-16T12:11:33;21.03;;;3.63;;
11006;SDS011;8186;57.652;11.968;2022-10-16T12:14:21;27.73;;;4.33;;
11006;SDS011;8186;57.652;11.968;2022-10-16T12:17:02;23.90;;;4.53;;
11006;SDS011;8186;57.652;11.968;2022-10-16T12:19:31;17.93;;;3.90;;
11006;SDS011;8186;57.652;11.968;2022-10-16T12:21:59;13.10;;;3.40;;
11006;SDS011;8186;57.652;11.968;2022-10-16T12:24:36;17.97;;;3.60;;
11006;SDS011;8186;57.652;11.968;2022-10-16T12:27:04;21.67;;;3.37;;
11006;SDS011;8186;57.652;11.968;2022-10-16T12:29:34;21.87;;;3.53;;
11006;SDS011;8186;57.652;11.968;2022-10-16T12:32:04;26.67;;;4.10;;
11006;SDS011;8186;57.652;11.968;2022-10-16T12:34:35;21.87;;;3.50;;
11006;SDS011;8186;57.652;11.968;2022-10-16T12:37:09;24.83;;;3.50;;
11006;SDS011;8186;57.652;11.968;2022-10-16T12:39:38;20.23;;;3.27;;
11006;SDS011;8186;57.652;11.968;2022-10-16T12:42:17;23.20;;;3.33;;
11006;SDS011;8186;57.652;11.968;2022-10-16T12:44:47;14.60;;;3.20;;
11006;SDS011;8186;57.652;11.968;2022-10-16T12:47:23;25.93;;;4.03;;
11006;SDS011;8186;57.652;11.968;2022-10-16T12:49:51;14.20;;;3.27;;
11006;SDS011;8186;57.652;11.968;2022-10-16T12:52:23;20.33;;;3.60;;
11006;SDS011;8186;57.652;11.968;2022-10-16T12:54:55;21.10;;;4.60;;
11006;SDS011;8186;57.652;11.968;2022-10-16T12:57:39;12.90;;;2.87;;
11006;SDS011;8186;57.652;11.968;2022-10-16T13:00:24;13.83;;;2.37;;
11006;SDS011;8186;57.652;11.968;2022-10-16T13:03:01;11.93;;;2.13;;
11006;SDS011;8186;57.652;11.968;2022-10-16T13:05:52;11.97;;;2.40;;
11006;SDS011;8186;57.652;11.968;2022-10-16T13:08:33;13.63;;;2.57;;
11006;SDS011;8186;57.652;11.968;2022-10-16T13:11:08;9.80;;;2.23;;
11006;SDS011;8186;57.652;11.968;2022-10-16T13:13:43;11.60;;;2.27;;
11006;SDS011;8186;57.652;11.968;2022-10-16T13:16:18;8.10;;;1.63;;
11006;SDS011;8186;57.652;11.968;2022-10-16T13:18:53;11.20;;;2.43;;
11006;SDS011;8186;57.652;11.968;2022-10-16T13:21:31;8.83;;;2.17;;
11006;SDS011;8186;57.652;11.968;2022-10-16T13:24:07;11.90;;;2.90;;
11006;SDS011;8186;57.652;11.968;2022-10-16T13:26:41;13.83;;;2.57;;
11006;SDS011;8186;57.652;11.968;2022-10-16T13:29:12;7.70;;;2.10;;
11006;SDS011;8186;57.652;11.968;2022-10-16T13:31:39;14.10;;;2.60;;
11006;SDS011;8186;57.652;11.968;2022-10-16T13:34:11;10.67;;;2.57;;
11006;SDS011;8186;57.652;11.968;2022-10-16T13:36:43;11.93;;;3.10;;
11006;SDS011;8186;57.652;11.968;2022-10-16T13:39:12;12.30;;;2.80;;
11006;SDS011;8186;57.652;11.968;2022-10-16T13:41:40;15.60;;;3.27;;
11006;SDS011;8186;57.652;11.968;2022-10-16T13:44:11;12.17;;;2.87;;
11006;SDS011;8186;57.652;11.968;2022-10-16T13:46:40;11.23;;;2.70;;
11006;SDS011;8186;57.652;11.968;2022-10-16T13:49:13;12.30;;;2.50;;
11006;SDS011;8186;57.652;11.968;2022-10-16T13:51:41;11.20;;;2.50;;
11006;SDS011;8186;57.652;11.968;2022-10-16T13:54:09;16.07;;;3.27;;
11006;SDS011;8186;57.652;11.968;2022-10-16T13:56:38;12.37;;;2.50;;
11006;SDS011;8186;57.652;11.968;2022-10-16T13:59:06;11.57;;;3.37;;
11006;SDS011;8186;57.652;11.968;2022-10-16T14:01:33;12.20;;;3.27;;
11006;SDS011;8186;57.652;11.968;2022-10-16T14:04:02;11.60;;;2.57;;
11006;SDS011;8186;57.652;11.968;2022-10-16T14:06:32;14.57;;;2.53;;
11006;SDS011;8186;57.652;11.968;2022-10-16T14:09:00;16.97;;;3.40;;
11006;SDS011;8186;57.652;11.968;2022-10-16T14:11:28;14.03;;;2.50;;
11006;SDS011;8186;57.652;11.968;2022-10-16T14:13:55;12.80;;;2.63;;
11006;SDS011;8186;57.652;11.968;2022-10-16T14:16:23;18.80;;;3.60;;
11006;SDS011;8186;57.652;11.968;2022-10-16T14:18:55;13.17;;;2.97;;
11006;SDS011;8186;57.652;11.968;2022-10-16T14:21:23;10.97;;;3.27;;
11006;SDS011;8186;57.652;11.968;2022-10-16T14:23:53;14.10;;;3.23;;
11006;SDS011;8186;57.652;11.968;2022-10-16T14:26:21;16.73;;;2.90;;
11006;SDS011;8186;57.652;11.968;2022-10-16T14:29:00;19.10;;;3.17;;
11006;SDS011;8186;57.652;11.968;2022-10-16T14:31:30;13.83;;;2.77;;
11006;SDS011;8186;57.652;11.968;2022-10-16T14:33:58;17.70;;;3.47;;
11006;SDS011;8186;57.652;11.968;2022-10-16T14:36:25;17.47;;;3.63;;
11006;SDS011;8186;57.652;11.968;2022-10-16T14:38:57;11.63;;;2.80;;
11006;SDS011;8186;57.652;11.968;2022-10-16T14:41:26;12.70;;;3.37;;
11006;SDS011;8186;57.652;11.968;2022-10-16T14:43:54;18.17;;;3.60;;
11006;SDS011;8186;57.652;11.968;2022-10-16T14:46:22;13.97;;;3.07;;
11006;SDS011;8186;57.652;11.968;2022-10-16T14:48:58;13.30;;;2.90;;
11006;SDS011;8186;57.652;11.968;2022-10-16T14:51:27;15.33;;;3.27;;
11006;SDS011;8186;57.652;11.968;2022-10-16T14:53:54;15.77;;;3.47;;